sensor_id;sensor_type;location;lat;lon;timestamp;pressure;altitude;pressure_sealevel;temperature;humidity
36524;BME280;66329;46.796;9.824;2023-02-18T00:01:49;85594.15;;;25.13;8.13
36524;BME280;66329;46.796;9.824;2023-02-18T00:04:16;85590.43;;;24.60;8.15
36524;BME280;66329;46.796;9.824;2023-02-18T00:06:43;85590.37;;;25.07;8.13
36524;BME280;66329;46.796;9.824;2023-02-18T00:09:10;85585.72;;;24.18;8.11
36524;BME280;66329;46.796;9.824;2023-02-18T00:11:38;85584.90;;;25.09;8.11
36524;BME280;66329;46.796;9.824;2023-02-18T00:14:07;85582.26;;;25.09;8.10
36524;BME280;66329;46.796;9.824;2023-02-18T00:16:34;85580.05;;;24.20;8.10
36524;BME280;66329;46.796;9.824;2023-02-18T00:19:03;85578.24;;;24.19;8.11
36524;BME280;66329;46.796;9.824;2023-02-18T00:21:33;85578.09;;;24.58;8.14
36524;BME280;66329;46.796;9.824;2023-02-18T00:24:00;85575.33;;;25.05;8.13
36524;BME280;66329;46.796;9.824;2023-02-18T00:26:28;85572.25;;;24.57;8.11
36524;BME280;66329;46.796;9.824;2023-02-18T00:28:55;85570.92;;;25.09;8.11
36524;BME280;66329;46.796;9.824;2023-02-18T00:31:24;85571.32;;;24.20;8.10
36524;BME280;66329;46.796;9.824;2023-02-18T00:33:53;85570.15;;;24.60;8.09
36524;BME280;66329;46.796;9.824;2023-02-18T00:36:21;85568.50;;;25.12;8.08
36524;BME280;66329;46.796;9.824;2023-02-18T00:38:51;85566.01;;;25.14;8.07
36524;BME280;66329;46.796;9.824;2023-02-18T00:41:19;85568.10;;;25.14;8.09
36524;BME280;66329;46.796;9.824;2023-02-18T00:43:47;85566.78;;;24.23;8.08
36524;BME280;66329;46.796;9.824;2023-02-18T00:46:14;85566.85;;;24.25;8.07
36524;BME280;66329;46.796;9.824;2023-02-18T00:48:42;85565.49;;;25.16;8.06
36524;BME280;66329;46.796;9.824;2023-02-18T00:51:09;85566.37;;;25.17;8.07
36524;BME280;66329;46.796;9.824;2023-02-18T00:53:38;85564.59;;;24.61;8.09
36524;BME280;66329;46.796;9.824;2023-02-18T00:56:06;85564.08;;;25.12;8.08
36524;BME280;66329;46.796;9.824;2023-02-18T00:58:35;85558.81;;;24.61;8.09
36524;BME280;66329;46.796;9.824;2023-02-18T01:01:05;85555.86;;;24.19;8.08
36524;BME280;66329;46.796;9.824;2023-02-18T01:03:32;85554.44;;;25.11;8.09
36524;BME280;66329;46.796;9.824;2023-02-18T01:06:00;85557.73;;;24.61;8.09
36524;BME280;66329;46.796;9.824;2023-02-18T01:08:27;85559.27;;;25.13;8.09
36524;BME280;66329;46.796;9.824;2023-02-18T01:10:57;85560.91;;;24.20;8.08
36524;BME280;66329;46.796;9.824;2023-02-18T01:13:25;85560.00;;;25.12;8.08
36524;BME280;66329;46.796;9.824;2023-02-18T01:15:53;85558.97;;;24.64;8.06
36524;BME280;66329;46.796;9.824;2023-02-18T01:18:23;85558.01;;;25.11;8.08
36524;BME280;66329;46.796;9.824;2023-02-18T01:20:51;85557.33;;;25.07;8.09
36524;BME280;66329;46.796;9.824;2023-02-18T01:23:19;85557.64;;;25.07;8.09
36524;BME280;66329;46.796;9.824;2023-02-18T01:25:48;85556.49;;;25.10;8.08
36524;BME280;66329;46.796;9.824;2023-02-18T01:28:16;85553.81;;;25.12;8.07
36524;BME280;66329;46.796;9.824;2023-02-18T01:30:44;85551.93;;;24.55;8.08
36524;BME280;66329;46.796;9.824;2023-02-18T01:33:12;85549.85;;;24.12;8.10
36524;BME280;66329;46.796;9.824;2023-02-18T01:35:41;85548.78;;;24.55;8.08
36524;BME280;66329;46.796;9.824;2023-02-18T01:38:09;85547.18;;;25.03;8.08
36524;BME280;66329;46.796;9.824;2023-02-18T01:40:45;85549.03;;;25.02;8.12
36524;BME280;66329;46.796;9.824;2023-02-18T01:43:15;85544.82;;;24.48;8.10
36524;BME280;66329;46.796;9.824;2023-02-18T01:45:58;85542.71;;;24.98;8.10
36524;BME280;66329;46.796;9.824;2023-02-18T01:48:30;85541.00;;;24.93;8.12
36524;BME280;66329;46.796;9.824;2023-02-18T01:51:03;85543.72;;;24.02;8.12
36524;BME280;66329;46.796;9.824;2023-02-18T01:53:37;85543.41;;;24.95;8.11
36524;BME280;66329;46.796;9.824;2023-02-18T01:56:10;85537.34;;;25.00;8.09
36524;BME280;66329;46.796;9.824;2023-02-18T01:58:41;85534.09;;;24.47;8.09
36524;BME280;66329;46.796;9.824;2023-02-18T02:01:10;85532.19;;;24.99;8.10
36524;BME280;66329;46.796;9.824;2023-02-18T02:03:38;85529.39;;;24.99;8.10
36524;BME280;66329;46.796;9.824;2023-02-18T02:06:14;85529.06;;;24.98;8.09
36524;BME280;66329;46.796;9.824;2023-02-18T02:08:44;85526.00;;;24.47;8.09
36524;BME280;66329;46.796;9.824;2023-02-18T02:11:32;85523.80;;;24.92;8.11
36524;BME280;66329;46.796;9.824;2023-02-18T02:14:15;85525.01;;;24.88;8.10
36524;BME280;66329;46.796;9.824;2023-02-18T02:16:50;85522.85;;;24.82;8.14
36524;BME280;66329;46.796;9.824;2023-02-18T02:19:58;85521.52;;;24.33;8.13
36524;BME280;66329;46.796;9.824;2023-02-18T02:23:16;85517.53;;;24.71;8.16
36524;BME280;66329;46.796;9.824;2023-02-18T02:26:14;85520.33;;;24.62;8.19
36524;BME280;66329;46.796;9.824;2023-02-18T02:29:07;85518.43;;;24.56;8.21
36524;BME280;66329;46.796;9.824;2023-02-18T02:31:59;85518.97;;;24.58;8.20
36524;BME280;66329;46.796;9.824;2023-02-18T02:34:51;85518.69;;;24.11;8.19
36524;BME280;66329;46.796;9.824;2023-02-18T02:37:27;85514.45;;;25.01;8.19
36524;BME280;66329;46.796;9.824;2023-02-18T02:40:10;85516.54;;;24.62;8.19
36524;BME280;66329;46.796;9.824;2023-02-18T02:42:48;85515.78;;;24.17;8.16
36524;BME280;66329;46.796;9.824;2023-02-18T02:45:28;85516.61;;;24.75;8.14
36524;BME280;66329;46.796;9.824;2023-02-18T02:48:08;85514.01;;;25.18;8.14
36524;BME280;66329;46.796;9.824;2023-02-18T02:50:42;85507.68;;;24.77;8.13
36524;BME280;66329;46.796;9.824;2023-02-18T02:53:15;85505.21;;;24.32;8.11
36524;BME280;66329;46.796;9.824;2023-02-18T02:55:44;85501.18;;;24.88;8.07
36524;BME280;66329;46.796;9.824;2023-02-18T02:58:15;85502.90;;;24.44;8.05
36524;BME280;66329;46.796;9.824;2023-02-18T03:00:54;85505.92;;;24.94;8.04
36524;BME280;66329;46.796;9.824;2023-02-18T03:03:36;85507.65;;;24.00;8.06
36524;BME280;66329;46.796;9.824;2023-02-18T03:06:21;85510.18;;;24.94;8.04
36524;BME280;66329;46.796;9.824;2023-02-18T03:09:01;85507.46;;;24.93;8.07
36524;BME280;66329;46.796;9.824;2023-02-18T03:11:41;85504.79;;;24.96;8.02
36524;BME280;66329;46.796;9.824;2023-02-18T03:14:16;85508.21;;;24.09;8.01
36524;BME280;66329;46.796;9.824;2023-02-18T03:16:49;85511.36;;;24.12;8.01
36524;BME280;66329;46.796;9.824;2023-02-18T03:19:21;85512.49;;;24.14;8.00
36524;BME280;66329;46.796;9.824;2023-02-18T03:21:58;85513.14;;;24.15;7.98
36524;BME280;66329;46.796;9.824;2023-02-18T03:24:29;85509.21;;;25.13;7.98
36524;BME280;66329;46.796;9.824;2023-02-18T03:27:02;85509.51;;;25.13;7.96
36524;BME280;66329;46.796;9.824;2023-02-18T03:29:32;85509.81;;;24.64;7.96
36524;BME280;66329;46.796;9.824;2023-02-18T03:32:04;85511.36;;;25.13;7.95
36524;BME280;66329;46.796;9.824;2023-02-18T03:34:38;85516.45;;;25.10;7.97
36524;BME280;66329;46.796;9.824;2023-02-18T03:37:09;85522.73;;;24.19;7.97
36524;BME280;66329;46.796;9.824;2023-02-18T03:39:40;85523.03;;;24.20;7.96
36524;BME280;66329;46.796;9.824;2023-02-18T03:42:10;85523.89;;;25.15;7.95
36524;BME280;66329;46.796;9.824;2023-02-18T03:44:38;85517.81;;;24.22;7.95
36524;BME280;66329;46.796;9.824;2023-02-18T03:47:06;85516.76;;;25.17;7.94
36524;BME280;66329;46.796;9.824;2023-02-18T03:49:33;85514.34;;;25.14;7.95
36524;BME280;66329;46.796;9.824;2023-02-18T03:52:00;85515.70;;;25.17;7.93
36524;BME280;66329;46.796;9.824;2023-02-18T03:54:29;85510.31;;;25.12;7.94
36524;BME280;66329;46.796;9.824;2023-02-18T03:56:56;85513.78;;;24.63;7.94
36524;BME280;66329;46.796;9.824;2023-02-18T03:59:23;85511.46;;;25.13;7.94
36524;BME280;66329;46.796;9.824;2023-02-18T04:01:50;85512.08;;;24.62;7.93
36524;BME280;66329;46.796;9.824;2023-02-18T04:04:17;85513.75;;;24.24;7.93
36524;BME280;66329;46.796;9.824;2023-02-18T04:06:44;85511.74;;;24.65;7.92
36524;BME280;66329;46.796;9.824;2023-02-18T04:09:11;85512.55;;;24.65;7.92
36524;BME280;66329;46.796;9.824;2023-02-18T04:11:39;85508.80;;;24.63;7.92
36524;BME280;66329;46.796;9.824;2023-02-18T04:14:07;85508.95;;;24.17;7.93
36524;BME280;66329;46.796;9.824;2023-02-18T04:16:34;85511.03;;;25.06;7.94
36524;BME280;66329;46.796;9.824;2023-02-18T04:19:01;85510.02;;;24.61;7.93
36524;BME280;66329;46.796;9.824;2023-02-18T04:21:29;85510.71;;;24.19;7.92
36524;BME280;66329;46.796;9.824;2023-02-18T04:23:56;85511.73;;;24.17;7.92
36524;BME280;66329;46.796;9.824;2023-02-18T04:26:23;85510.06;;;24.14;7.93
36524;BME280;66329;46.796;9.824;2023-02-18T04:28:50;85511.54;;;25.11;7.93
36524;BME280;66329;46.796;9.824;2023-02-18T04:31:17;85505.96;;;24.59;7.93
36524;BME280;66329;46.796;9.824;2023-02-18T04:33:45;85505.26;;;24.21;7.89
36524;BME280;66329;46.796;9.824;2023-02-18T04:36:12;85500.93;;;25.13;7.88
36524;BME280;66329;46.796;9.824;2023-02-18T04:38:39;85497.94;;;24.56;7.90
36524;BME280;66329;46.796;9.824;2023-02-18T04:41:06;85498.15;;;24.15;7.92
36524;BME280;66329;46.796;9.824;2023-02-18T04:43:34;85492.29;;;24.18;7.89
36524;BME280;66329;46.796;9.824;2023-02-18T04:46:01;85494.26;;;24.19;7.86
36524;BME280;66329;46.796;9.824;2023-02-18T04:48:28;85495.83;;;24.62;7.85
36524;BME280;66329;46.796;9.824;2023-02-18T04:50:56;85493.72;;;24.62;7.86
36524;BME280;66329;46.796;9.824;2023-02-18T04:53:23;85491.11;;;24.64;7.83
36524;BME280;66329;46.796;9.824;2023-02-18T04:55:51;85492.27;;;25.17;7.81
36524;BME280;66329;46.796;9.824;2023-02-18T04:58:18;85496.86;;;24.65;7.83
36524;BME280;66329;46.796;9.824;2023-02-18T05:00:47;85496.57;;;24.24;7.84
36524;BME280;66329;46.796;9.824;2023-02-18T05:03:14;85497.05;;;24.63;7.83
36524;BME280;66329;46.796;9.824;2023-02-18T05:05:41;85497.82;;;25.11;7.84
36524;BME280;66329;46.796;9.824;2023-02-18T05:08:08;85497.27;;;25.11;7.80
36524;BME280;66329;46.796;9.824;2023-02-18T05:10:37;85497.10;;;25.15;7.82
36524;BME280;66329;46.796;9.824;2023-02-18T05:13:04;85492.28;;;24.67;7.81
36524;BME280;66329;46.796;9.824;2023-02-18T05:15:31;85493.74;;;24.65;7.82
36524;BME280;66329;46.796;9.824;2023-02-18T05:17:58;85492.96;;;25.15;7.81
36524;BME280;66329;46.796;9.824;2023-02-18T05:20:26;85492.36;;;24.22;7.83
36524;BME280;66329;46.796;9.824;2023-02-18T05:22:54;85495.90;;;24.62;7.82
36524;BME280;66329;46.796;9.824;2023-02-18T05:25:21;85491.07;;;25.10;7.83
36524;BME280;66329;46.796;9.824;2023-02-18T05:27:48;85492.68;;;25.07;7.83
36524;BME280;66329;46.796;9.824;2023-02-18T05:30:15;85494.58;;;24.55;7.84
36524;BME280;66329;46.796;9.824;2023-02-18T05:32:42;85494.53;;;24.10;7.85
36524;BME280;66329;46.796;9.824;2023-02-18T05:35:09;85493.74;;;24.09;7.85
36524;BME280;66329;46.796;9.824;2023-02-18T05:37:36;85497.03;;;24.10;7.84
36524;BME280;66329;46.796;9.824;2023-02-18T05:40:05;85495.86;;;24.50;7.83
36524;BME280;66329;46.796;9.824;2023-02-18T05:42:32;85497.10;;;24.49;7.83
36524;BME280;66329;46.796;9.824;2023-02-18T05:44:59;85500.21;;;25.34;7.86
36524;BME280;66329;46.796;9.824;2023-02-18T05:47:27;85505.08;;;24.90;7.86
36524;BME280;66329;46.796;9.824;2023-02-18T05:49:54;85506.58;;;24.87;7.87
36524;BME280;66329;46.796;9.824;2023-02-18T05:52:21;85507.38;;;24.35;7.87
36524;BME280;66329;46.796;9.824;2023-02-18T05:54:48;85508.83;;;24.83;7.88
36524;BME280;66329;46.796;9.824;2023-02-18T05:57:15;85512.09;;;24.33;7.88
36524;BME280;66329;46.796;9.824;2023-02-18T05:59:42;85511.45;;;24.84;7.87
36524;BME280;66329;46.796;9.824;2023-02-18T06:02:09;85511.42;;;24.82;7.87
36524;BME280;66329;46.796;9.824;2023-02-18T06:04:36;85509.86;;;24.80;7.85
36524;BME280;66329;46.796;9.824;2023-02-18T06:07:03;85504.07;;;23.89;7.87
36524;BME280;66329;46.796;9.824;2023-02-18T06:09:31;85498.71;;;24.80;7.85
36524;BME280;66329;46.796;9.824;2023-02-18T06:11:58;85494.43;;;23.90;7.86
36524;BME280;66329;46.796;9.824;2023-02-18T06:14:25;85494.33;;;24.83;7.82
36524;BME280;66329;46.796;9.824;2023-02-18T06:16:52;85496.31;;;24.89;7.79
36524;BME280;66329;46.796;9.824;2023-02-18T06:19:20;85490.66;;;23.11;7.77
36524;BME280;66329;46.796;9.824;2023-02-18T06:21:47;85487.66;;;24.10;7.71
36524;BME280;66329;46.796;9.824;2023-02-18T06:24:15;85486.32;;;25.01;7.70
36524;BME280;66329;46.796;9.824;2023-02-18T06:26:42;85484.82;;;25.03;7.70
36524;BME280;66329;46.796;9.824;2023-02-18T06:29:09;85484.16;;;25.02;7.67
36524;BME280;66329;46.796;9.824;2023-02-18T06:31:37;85481.00;;;24.53;7.67
36524;BME280;66329;46.796;9.824;2023-02-18T06:34:04;85476.05;;;25.03;7.73
36524;BME280;66329;46.796;9.824;2023-02-18T06:36:31;85471.65;;;25.03;7.72
36524;BME280;66329;46.796;9.824;2023-02-18T06:38:58;85471.92;;;25.03;7.72
36524;BME280;66329;46.796;9.824;2023-02-18T06:41:25;85470.27;;;24.13;7.72
36524;BME280;66329;46.796;9.824;2023-02-18T06:43:52;85471.14;;;24.57;7.72
36524;BME280;66329;46.796;9.824;2023-02-18T06:46:19;85469.65;;;24.15;7.72
36524;BME280;66329;46.796;9.824;2023-02-18T06:48:47;85469.76;;;25.08;7.72
36524;BME280;66329;46.796;9.824;2023-02-18T06:51:14;85471.07;;;24.57;7.71
36524;BME280;66329;46.796;9.824;2023-02-18T06:53:42;85471.80;;;25.06;7.71
36524;BME280;66329;46.796;9.824;2023-02-18T06:56:09;85470.35;;;24.12;7.71
36524;BME280;66329;46.796;9.824;2023-02-18T06:58:36;85470.97;;;24.16;7.69
36524;BME280;66329;46.796;9.824;2023-02-18T07:01:03;85470.87;;;24.16;7.68
36524;BME280;66329;46.796;9.824;2023-02-18T07:03:30;85468.92;;;24.16;7.68
36524;BME280;66329;46.796;9.824;2023-02-18T07:05:57;85470.01;;;24.60;7.69
36524;BME280;66329;46.796;9.824;2023-02-18T07:08:24;85472.32;;;24.14;7.70
36524;BME280;66329;46.796;9.824;2023-02-18T07:10:51;85472.23;;;25.03;7.70
36524;BME280;66329;46.796;9.824;2023-02-18T07:13:18;85474.13;;;24.56;7.68
36524;BME280;66329;46.796;9.824;2023-02-18T07:15:46;85476.44;;;24.13;7.69
36524;BME280;66329;46.796;9.824;2023-02-18T07:18:13;85477.15;;;24.14;7.67
36524;BME280;66329;46.796;9.824;2023-02-18T07:20:40;85476.17;;;24.57;7.67
36524;BME280;66329;46.796;9.824;2023-02-18T07:23:07;85473.42;;;24.57;7.68
36524;BME280;66329;46.796;9.824;2023-02-18T07:25:34;85470.49;;;25.06;7.68
36524;BME280;66329;46.796;9.824;2023-02-18T07:28:01;85469.34;;;24.54;7.67
36524;BME280;66329;46.796;9.824;2023-02-18T07:30:29;85469.41;;;24.16;7.66
36524;BME280;66329;46.796;9.824;2023-02-18T07:32:56;85465.70;;;24.55;7.67
36524;BME280;66329;46.796;9.824;2023-02-18T07:35:23;85464.73;;;24.53;7.64
36524;BME280;66329;46.796;9.824;2023-02-18T07:37:50;85464.73;;;25.00;7.65
36524;BME280;66329;46.796;9.824;2023-02-18T07:40:19;85463.98;;;25.01;7.68
36524;BME280;66329;46.796;9.824;2023-02-18T07:42:47;85467.39;;;25.01;7.66
36524;BME280;66329;46.796;9.824;2023-02-18T07:45:15;85464.67;;;24.11;7.64
36524;BME280;66329;46.796;9.824;2023-02-18T07:47:42;85462.35;;;24.12;7.63
36524;BME280;66329;46.796;9.824;2023-02-18T07:50:10;85459.11;;;25.02;7.63
36524;BME280;66329;46.796;9.824;2023-02-18T07:52:37;85460.96;;;24.51;7.64
36524;BME280;66329;46.796;9.824;2023-02-18T07:55:04;85461.23;;;25.03;7.59
36524;BME280;66329;46.796;9.824;2023-02-18T07:57:32;85463.98;;;24.47;7.62
36524;BME280;66329;46.796;9.824;2023-02-18T07:59:59;85464.29;;;24.99;7.65
36524;BME280;66329;46.796;9.824;2023-02-18T08:02:26;85464.49;;;24.99;7.63
36524;BME280;66329;46.796;9.824;2023-02-18T08:04:53;85466.35;;;24.97;7.63
36524;BME280;66329;46.796;9.824;2023-02-18T08:07:22;85466.39;;;24.04;7.60
36524;BME280;66329;46.796;9.824;2023-02-18T08:09:49;85467.87;;;24.98;7.57
36524;BME280;66329;46.796;9.824;2023-02-18T08:12:17;85465.15;;;25.05;7.62
36524;BME280;66329;46.796;9.824;2023-02-18T08:14:43;85465.95;;;25.07;7.56
36524;BME280;66329;46.796;9.824;2023-02-18T08:17:11;85463.13;;;25.04;7.57
36524;BME280;66329;46.796;9.824;2023-02-18T08:19:38;85464.08;;;24.10;7.61
36524;BME280;66329;46.796;9.824;2023-02-18T08:22:05;85464.89;;;24.15;7.61
36524;BME280;66329;46.796;9.824;2023-02-18T08:24:32;85463.60;;;25.08;7.61
36524;BME280;66329;46.796;9.824;2023-02-18T08:26:59;85467.00;;;25.08;7.59
36524;BME280;66329;46.796;9.824;2023-02-18T08:29:26;85462.66;;;25.08;7.59
36524;BME280;66329;46.796;9.824;2023-02-18T08:31:53;85461.37;;;24.60;7.57
36524;BME280;66329;46.796;9.824;2023-02-18T08:34:20;85459.58;;;25.16;7.54
36524;BME280;66329;46.796;9.824;2023-02-18T08:36:48;85458.03;;;24.23;7.56
36524;BME280;66329;46.796;9.824;2023-02-18T08:39:15;85456.03;;;24.20;7.58
36524;BME280;66329;46.796;9.824;2023-02-18T08:41:42;85453.21;;;25.11;7.58
36524;BME280;66329;46.796;9.824;2023-02-18T08:44:09;85454.73;;;24.60;7.57
36524;BME280;66329;46.796;9.824;2023-02-18T08:46:36;85451.56;;;25.09;7.58
36524;BME280;66329;46.796;9.824;2023-02-18T08:49:03;85450.72;;;24.56;7.59
36524;BME280;66329;46.796;9.824;2023-02-18T08:51:30;85449.33;;;25.48;7.58
36524;BME280;66329;46.796;9.824;2023-02-18T08:53:58;85447.73;;;24.53;7.60
36524;BME280;66329;46.796;9.824;2023-02-18T08:56:25;85449.17;;;25.04;7.57
36524;BME280;66329;46.796;9.824;2023-02-18T08:58:53;85447.20;;;24.12;7.58
36524;BME280;66329;46.796;9.824;2023-02-18T09:01:20;85443.27;;;24.15;7.56
36524;BME280;66329;46.796;9.824;2023-02-18T09:03:47;85440.08;;;25.08;7.56
36524;BME280;66329;46.796;9.824;2023-02-18T09:06:14;85435.16;;;24.58;7.58
36524;BME280;66329;46.796;9.824;2023-02-18T09:08:41;85431.41;;;24.17;7.55
36524;BME280;66329;46.796;9.824;2023-02-18T09:11:10;85427.34;;;24.62;7.56
36524;BME280;66329;46.796;9.824;2023-02-18T09:13:37;85424.65;;;25.08;7.58
36524;BME280;66329;46.796;9.824;2023-02-18T09:16:07;85424.32;;;24.53;7.61
36524;BME280;66329;46.796;9.824;2023-02-18T09:18:39;85424.75;;;24.12;7.60
36524;BME280;66329;46.796;9.824;2023-02-18T09:21:08;85424.43;;;25.09;7.59
36524;BME280;66329;46.796;9.824;2023-02-18T09:23:35;85424.13;;;25.08;7.61
36524;BME280;66329;46.796;9.824;2023-02-18T09:26:05;85421.95;;;24.63;7.57
36524;BME280;66329;46.796;9.824;2023-02-18T09:28:32;85419.73;;;24.21;7.59
36524;BME280;66329;46.796;9.824;2023-02-18T09:31:03;85415.85;;;24.60;7.60
36524;BME280;66329;46.796;9.824;2023-02-18T09:33:32;85415.52;;;24.60;7.60
36524;BME280;66329;46.796;9.824;2023-02-18T09:36:00;85413.29;;;24.19;7.60
36524;BME280;66329;46.796;9.824;2023-02-18T09:38:27;85414.01;;;25.07;7.62
36524;BME280;66329;46.796;9.824;2023-02-18T09:40:55;85411.14;;;24.54;7.63
36524;BME280;66329;46.796;9.824;2023-02-18T09:43:29;85410.32;;;24.12;7.63
36524;BME280;66329;46.796;9.824;2023-02-18T09:45:58;85408.03;;;25.05;7.63
36524;BME280;66329;46.796;9.824;2023-02-18T09:48:29;85405.87;;;25.08;7.63
36524;BME280;66329;46.796;9.824;2023-02-18T09:50:57;85402.83;;;25.10;7.62
36524;BME280;66329;46.796;9.824;2023-02-18T09:53:25;85401.95;;;25.13;7.61
36524;BME280;66329;46.796;9.824;2023-02-18T09:55:54;85399.84;;;24.61;7.63
36524;BME280;66329;46.796;9.824;2023-02-18T09:58:25;85400.31;;;24.59;7.63
36524;BME280;66329;46.796;9.824;2023-02-18T10:00:58;85403.43;;;25.09;7.65
36524;BME280;66329;46.796;9.824;2023-02-18T10:03:29;85403.79;;;25.07;7.65
36524;BME280;66329;46.796;9.824;2023-02-18T10:06:01;85403.97;;;24.22;7.64
36524;BME280;66329;46.796;9.824;2023-02-18T10:08:32;85404.59;;;25.16;7.62
36524;BME280;66329;46.796;9.824;2023-02-18T10:11:01;85406.15;;;25.16;7.63
36524;BME280;66329;46.796;9.824;2023-02-18T10:13:31;85405.38;;;24.65;7.63
36524;BME280;66329;46.796;9.824;2023-02-18T10:16:00;85405.99;;;24.24;7.64
36524;BME280;66329;46.796;9.824;2023-02-18T10:18:30;85406.19;;;24.26;7.64
36524;BME280;66329;46.796;9.824;2023-02-18T10:21:04;85404.86;;;24.28;7.63
36524;BME280;66329;46.796;9.824;2023-02-18T10:23:33;85403.49;;;24.24;7.66
36524;BME280;66329;46.796;9.824;2023-02-18T10:26:05;85401.22;;;25.13;7.68
36524;BME280;66329;46.796;9.824;2023-02-18T10:28:35;85399.53;;;24.62;7.68
36524;BME280;66329;46.796;9.824;2023-02-18T10:31:06;85399.68;;;25.13;7.68
36524;BME280;66329;46.796;9.824;2023-02-18T10:33:38;85398.14;;;24.63;7.69
36524;BME280;66329;46.796;9.824;2023-02-18T10:36:22;85398.02;;;24.62;7.70
36524;BME280;66329;46.796;9.824;2023-02-18T10:39:26;85398.80;;;24.57;7.71
36524;BME280;66329;46.796;9.824;2023-02-18T10:42:07;85395.41;;;24.95;7.75
36524;BME280;66329;46.796;9.824;2023-02-18T10:44:45;85392.02;;;24.06;7.77
36524;BME280;66329;46.796;9.824;2023-02-18T10:47:28;85390.11;;;25.04;7.73
36524;BME280;66329;46.796;9.824;2023-02-18T10:50:03;85386.74;;;25.00;7.75
36524;BME280;66329;46.796;9.824;2023-02-18T10:52:37;85384.85;;;24.53;7.75
36524;BME280;66329;46.796;9.824;2023-02-18T10:55:09;85383.55;;;25.09;7.74
36524;BME280;66329;46.796;9.824;2023-02-18T10:57:45;85383.88;;;25.10;7.74
36524;BME280;66329;46.796;9.824;2023-02-18T11:00:19;85381.65;;;25.11;7.76
36524;BME280;66329;46.796;9.824;2023-02-18T11:02:47;85380.07;;;24.58;7.78
36524;BME280;66329;46.796;9.824;2023-02-18T11:05:27;85376.70;;;25.05;7.76
36524;BME280;66329;46.796;9.824;2023-02-18T11:07:56;85373.75;;;24.57;7.76
36524;BME280;66329;46.796;9.824;2023-02-18T11:10:25;85371.34;;;24.19;7.74
36524;BME280;66329;46.796;9.824;2023-02-18T11:12:57;85369.58;;;25.10;7.76
36524;BME280;66329;46.796;9.824;2023-02-18T11:15:27;85365.46;;;25.08;7.76
36524;BME280;66329;46.796;9.824;2023-02-18T11:17:57;85364.11;;;24.57;7.77
36524;BME280;66329;46.796;9.824;2023-02-18T11:20:29;85357.25;;;24.64;7.75
36524;BME280;66329;46.796;9.824;2023-02-18T11:22:59;85355.01;;;24.27;7.74
36524;BME280;66329;46.796;9.824;2023-02-18T11:25:55;85349.25;;;25.53;7.75
36524;BME280;66329;46.796;9.824;2023-02-18T11:28:29;85349.23;;;24.56;7.78
36524;BME280;66329;46.796;9.824;2023-02-18T11:30:59;85347.99;;;24.57;7.78
36524;BME280;66329;46.796;9.824;2023-02-18T11:33:33;85343.19;;;24.60;7.77
36524;BME280;66329;46.796;9.824;2023-02-18T11:36:12;85341.52;;;24.62;7.77
36524;BME280;66329;46.796;9.824;2023-02-18T11:38:45;85338.79;;;24.60;7.78
36524;BME280;66329;46.796;9.824;2023-02-18T11:41:15;85334.98;;;24.64;7.76
36524;BME280;66329;46.796;9.824;2023-02-18T11:43:46;85332.27;;;24.26;7.76
36524;BME280;66329;46.796;9.824;2023-02-18T11:46:17;85328.57;;;24.24;7.76
36524;BME280;66329;46.796;9.824;2023-02-18T11:48:45;85324.80;;;24.26;7.76
36524;BME280;66329;46.796;9.824;2023-02-18T11:51:17;85325.30;;;25.19;7.76
36524;BME280;66329;46.796;9.824;2023-02-18T11:54:02;85319.39;;;24.70;7.76
36524;BME280;66329;46.796;9.824;2023-02-18T11:56:32;85315.61;;;24.59;7.79
36524;BME280;66329;46.796;9.824;2023-02-18T11:59:02;85314.03;;;25.12;7.81
36524;BME280;66329;46.796;9.824;2023-02-18T12:01:37;85310.19;;;25.18;7.77
36524;BME280;66329;46.796;9.824;2023-02-18T12:04:12;85306.34;;;25.62;7.77
36524;BME280;66329;46.796;9.824;2023-02-18T12:06:47;85308.74;;;24.30;7.77
36524;BME280;66329;46.796;9.824;2023-02-18T12:09:22;85307.58;;;25.16;7.79
36524;BME280;66329;46.796;9.824;2023-02-18T12:11:53;85304.40;;;25.16;7.79
36524;BME280;66329;46.796;9.824;2023-02-18T12:14:23;85300.49;;;24.26;7.78
36524;BME280;66329;46.796;9.824;2023-02-18T12:17:06;85297.78;;;25.20;7.78
36524;BME280;66329;46.796;9.824;2023-02-18T12:19:48;85294.23;;;24.27;7.80
36524;BME280;66329;46.796;9.824;2023-02-18T12:22:23;85291.67;;;25.20;7.78
36524;BME280;66329;46.796;9.824;2023-02-18T12:25:04;85290.31;;;24.26;7.79
36524;BME280;66329;46.796;9.824;2023-02-18T12:27:37;85289.64;;;25.24;7.77
36524;BME280;66329;46.796;9.824;2023-02-18T12:30:33;85281.72;;;24.35;7.76
36524;BME280;66329;46.796;9.824;2023-02-18T12:33:10;85281.24;;;24.34;7.75
36524;BME280;66329;46.796;9.824;2023-02-18T12:35:51;85281.02;;;25.26;7.74
36524;BME280;66329;46.796;9.824;2023-02-18T12:38:34;85278.91;;;24.36;7.72
36524;BME280;66329;46.796;9.824;2023-02-18T12:41:21;85276.18;;;24.40;7.72
36524;BME280;66329;46.796;9.824;2023-02-18T12:43:56;85272.58;;;24.32;7.73
36524;BME280;66329;46.796;9.824;2023-02-18T12:46:38;85271.42;;;25.23;7.72
36524;BME280;66329;46.796;9.824;2023-02-18T12:49:22;85270.90;;;25.24;7.72
36524;BME280;66329;46.796;9.824;2023-02-18T12:52:02;85269.82;;;24.32;7.73
36524;BME280;66329;46.796;9.824;2023-02-18T12:54:42;85272.26;;;24.36;7.74
36524;BME280;66329;46.796;9.824;2023-02-18T12:57:25;85274.65;;;24.79;7.72
36524;BME280;66329;46.796;9.824;2023-02-18T13:01:11;85273.72;;;24.38;7.71
36524;BME280;66329;46.796;9.824;2023-02-18T13:04:15;85273.10;;;25.05;7.80
36524;BME280;66329;46.796;9.824;2023-02-18T13:06:55;85271.98;;;24.16;7.80
36524;BME280;66329;46.796;9.824;2023-02-18T13:09:37;85270.08;;;25.16;7.76
36524;BME280;66329;46.796;9.824;2023-02-18T13:12:10;85269.98;;;24.33;7.73
36524;BME280;66329;46.796;9.824;2023-02-18T13:14:45;85271.40;;;24.78;7.73
36524;BME280;66329;46.796;9.824;2023-02-18T13:17:15;85270.04;;;24.78;7.73
36524;BME280;66329;46.796;9.824;2023-02-18T13:19:46;85273.69;;;24.38;7.72
36524;BME280;66329;46.796;9.824;2023-02-18T13:22:18;85275.31;;;24.43;7.72
36524;BME280;66329;46.796;9.824;2023-02-18T13:24:48;85274.24;;;24.49;7.70
36524;BME280;66329;46.796;9.824;2023-02-18T13:27:20;85275.39;;;24.52;7.70
36524;BME280;66329;46.796;9.824;2023-02-18T13:30:08;85273.40;;;24.51;7.71
36524;BME280;66329;46.796;9.824;2023-02-18T13:32:58;85270.18;;;24.42;7.73